createdAt,value
2023-04-06T00:02:12.966Z,8.62
2023-04-06T00:04:41.048Z,8.56
2023-04-06T00:07:09.189Z,8.44
2023-04-06T00:09:37.216Z,8.39
2023-04-06T00:12:05.234Z,8.42
2023-04-06T00:14:33.188Z,8.46
2023-04-06T00:17:01.201Z,8.36
2023-04-06T00:19:29.152Z,8.39
2023-04-06T00:21:57.185Z,8.44
2023-04-06T00:24:25.202Z,8.68
2023-04-06T00:26:53.314Z,8.80
2023-04-06T00:29:21.283Z,8.57
2023-04-06T00:31:49.318Z,8.55
2023-04-06T00:34:17.377Z,8.64
2023-04-06T00:36:45.550Z,8.64
2023-04-06T00:39:13.497Z,8.41
2023-04-06T00:41:50.835Z,8.59
2023-04-06T00:44:20.122Z,8.66
2023-04-06T00:46:48.336Z,8.64
2023-04-06T00:49:16.578Z,8.51
2023-04-06T00:51:44.681Z,8.20
2023-04-06T00:54:12.887Z,8.11
2023-04-06T00:56:42.748Z,8.13
2023-04-06T00:59:12.991Z,8.21
2023-04-06T01:01:41.990Z,8.32
2023-04-06T01:04:25.455Z,8.33
2023-04-06T01:06:55.221Z,8.44
2023-04-06T01:09:31.805Z,8.42
2023-04-06T01:12:04.794Z,8.44
2023-04-06T01:14:35.886Z,8.13
2023-04-06T01:17:04.202Z,8.22
2023-04-06T01:19:34.782Z,8.21
2023-04-06T01:22:02.909Z,8.13
2023-04-06T01:24:34.250Z,8.16
2023-04-06T01:27:31.480Z,8.06
2023-04-06T01:30:14.422Z,8.12
2023-04-06T01:33:08.693Z,8.07
2023-04-06T01:35:56.773Z,8.11
2023-04-06T01:38:24.866Z,8.12
2023-04-06T01:40:53.268Z,7.98
2023-04-06T01:43:24.178Z,7.87
2023-04-06T01:46:03.789Z,7.92
2023-04-06T01:48:36.345Z,7.89
2023-04-06T01:51:13.317Z,7.94
2023-04-06T01:53:50.758Z,7.87
2023-04-06T01:56:21.507Z,7.92
2023-04-06T01:59:01.125Z,7.96
2023-04-06T02:01:36.948Z,7.90
2023-04-06T02:04:05.117Z,7.72
2023-04-06T02:06:33.192Z,7.67
2023-04-06T02:09:03.241Z,7.61
2023-04-06T02:11:31.567Z,7.69
2023-04-06T02:14:01.630Z,7.72
2023-04-06T02:16:32.806Z,7.90
2023-04-06T02:19:00.736Z,7.93
2023-04-06T02:21:28.698Z,8.06
2023-04-06T02:23:56.987Z,7.96
2023-04-06T02:26:25.250Z,7.87
2023-04-06T02:28:53.207Z,7.88
2023-04-06T02:31:21.930Z,8.01
2023-04-06T02:33:51.001Z,7.90
2023-04-06T02:36:19.117Z,7.88
2023-04-06T02:38:47.207Z,7.87
2023-04-06T02:41:15.205Z,7.85
2023-04-06T02:43:43.297Z,7.82
2023-04-06T02:46:18.637Z,7.60
2023-04-06T02:48:46.778Z,7.60
2023-04-06T02:51:16.202Z,7.65
2023-04-06T02:53:49.291Z,7.50
2023-04-06T02:56:17.608Z,7.45
2023-04-06T02:58:50.159Z,7.38
2023-04-06T03:01:18.962Z,7.39
2023-04-06T03:03:47.848Z,7.38
2023-04-06T03:06:23.235Z,7.49
2023-04-06T03:08:55.813Z,7.41
2023-04-06T03:11:23.907Z,7.37
2023-04-06T03:13:54.097Z,7.17
2023-04-06T03:16:22.334Z,7.07
2023-04-06T03:18:50.601Z,7.06
2023-04-06T03:21:18.637Z,7.26
2023-04-06T03:23:52.476Z,7.19
2023-04-06T03:26:20.613Z,7.35
2023-04-06T03:28:48.543Z,7.51
2023-04-06T03:31:17.959Z,7.62
2023-04-06T03:34:00.660Z,7.46
2023-04-06T03:36:36.323Z,7.40
2023-04-06T03:39:06.327Z,7.22
2023-04-06T03:41:37.781Z,7.16
2023-04-06T03:44:33.127Z,7.30
2023-04-06T03:47:01.181Z,7.37
2023-04-06T03:49:29.210Z,7.36
2023-04-06T03:51:58.731Z,7.36
2023-04-06T03:54:26.702Z,7.21
2023-04-06T03:56:54.704Z,7.13
2023-04-06T03:59:22.769Z,7.04
2023-04-06T04:01:54.764Z,6.92
2023-04-06T04:04:22.970Z,6.92
2023-04-06T04:06:51.139Z,6.83
2023-04-06T04:09:19.105Z,6.94
2023-04-06T04:11:47.029Z,7.01
2023-04-06T04:14:15.030Z,7.10
2023-04-06T04:16:43.205Z,6.93
2023-04-06T04:19:11.301Z,6.78
2023-04-06T04:21:47.328Z,6.73
2023-04-06T04:24:19.659Z,6.62
2023-04-06T04:26:47.661Z,6.76
2023-04-06T04:29:16.629Z,6.81
2023-04-06T04:31:44.884Z,6.90
2023-04-06T04:34:18.052Z,6.99
2023-04-06T04:36:46.195Z,6.78
2023-04-06T04:39:21.542Z,6.83
2023-04-06T04:41:57.942Z,6.68
2023-04-06T04:44:26.378Z,6.73
2023-04-06T04:46:54.430Z,6.72
2023-04-06T04:49:28.232Z,6.72
2023-04-06T04:51:57.303Z,6.52
2023-04-06T04:54:32.593Z,6.47
2023-04-06T04:57:01.206Z,6.43
2023-04-06T04:59:57.330Z,6.37
2023-04-06T05:02:26.579Z,6.44
2023-04-06T05:05:05.606Z,6.74
2023-04-06T05:07:34.125Z,6.73
2023-04-06T05:10:03.821Z,6.48
2023-04-06T05:12:39.186Z,6.38
2023-04-06T05:15:10.225Z,6.36
2023-04-06T05:17:39.687Z,6.60
2023-04-06T05:20:09.916Z,6.79
2023-04-06T05:22:45.431Z,6.71
2023-04-06T05:25:15.072Z,6.72
2023-04-06T05:27:43.486Z,6.99
2023-04-06T05:30:30.529Z,6.93
2023-04-06T05:33:00.730Z,7.04
2023-04-06T05:35:35.947Z,7.06
2023-04-06T05:38:11.440Z,7.26
2023-04-06T05:40:42.296Z,7.30
2023-04-06T05:43:14.728Z,7.22
2023-04-06T05:45:46.904Z,7.36
2023-04-06T05:48:15.028Z,7.33
2023-04-06T05:50:43.086Z,7.29
2023-04-06T05:53:14.662Z,7.46
2023-04-06T05:55:47.075Z,7.42
2023-04-06T05:58:19.716Z,7.57
2023-04-06T06:00:49.181Z,7.62
2023-04-06T06:03:18.921Z,7.51
2023-04-06T06:05:52.785Z,7.54
2023-04-06T06:08:28.542Z,7.47
2023-04-06T06:10:57.924Z,7.61
2023-04-06T06:13:26.786Z,7.76
2023-04-06T06:15:55.147Z,7.88
2023-04-06T06:18:24.324Z,7.79
2023-04-06T06:20:55.342Z,7.84
2023-04-06T06:23:23.463Z,8.02
2023-04-06T06:25:51.390Z,8.16
2023-04-06T06:28:20.941Z,8.33
2023-04-06T06:30:49.437Z,8.47
2023-04-06T06:33:22.016Z,8.55
2023-04-06T06:35:53.447Z,8.66
2023-04-06T06:38:23.608Z,8.79
2023-04-06T06:40:52.711Z,8.77
2023-04-06T06:43:21.763Z,8.90
2023-04-06T06:46:00.143Z,9.03
2023-04-06T06:48:28.278Z,8.96
2023-04-06T06:50:56.463Z,9.02
2023-04-06T06:53:24.989Z,9.05
2023-04-06T06:55:53.029Z,9.02
2023-04-06T06:58:21.470Z,9.01
2023-04-06T07:00:50.188Z,8.94
2023-04-06T07:03:18.458Z,8.93
2023-04-06T07:05:51.370Z,8.96
2023-04-06T07:08:19.387Z,9.22
2023-04-06T07:10:47.375Z,9.36
2023-04-06T07:13:21.966Z,9.36
2023-04-06T07:15:52.028Z,9.64
2023-04-06T07:18:20.987Z,9.83
2023-04-06T07:20:49.167Z,9.69
2023-04-06T07:23:18.151Z,9.82
2023-04-06T07:25:46.821Z,10.03
2023-04-06T07:28:14.842Z,9.94
2023-04-06T07:30:43.533Z,10.22
2023-04-06T07:33:13.521Z,10.30
2023-04-06T07:35:43.316Z,10.33
2023-04-06T07:38:12.462Z,10.33
2023-04-06T07:40:41.794Z,10.27
2023-04-06T07:43:09.763Z,10.50
2023-04-06T07:45:38.035Z,10.52
2023-04-06T07:48:06.549Z,10.33
2023-04-06T07:50:35.996Z,10.43
2023-04-06T07:53:04.611Z,10.59
2023-04-06T07:55:32.661Z,10.71
2023-04-06T07:58:00.841Z,10.83
2023-04-06T08:00:28.903Z,10.71
2023-04-06T08:02:57.237Z,10.86
2023-04-06T08:05:25.280Z,10.91
2023-04-06T08:07:53.314Z,11.29
2023-04-06T08:10:21.327Z,11.38
2023-04-06T08:12:49.345Z,11.56
2023-04-06T08:15:19.600Z,11.69
2023-04-06T08:17:47.765Z,11.91
2023-04-06T08:20:15.851Z,11.78
2023-04-06T08:22:43.760Z,11.76
2023-04-06T08:25:11.874Z,11.93
2023-04-06T08:27:39.856Z,12.05
2023-04-06T08:30:08.094Z,12.08
2023-04-06T08:32:36.455Z,11.76
2023-04-06T08:35:04.632Z,11.63
2023-04-06T08:37:32.703Z,11.73
2023-04-06T08:40:01.175Z,11.55
2023-04-06T08:42:33.140Z,11.45
2023-04-06T08:45:02.262Z,11.36
2023-04-06T08:47:30.325Z,11.49
2023-04-06T08:50:00.728Z,11.45
2023-04-06T08:52:30.850Z,11.54
2023-04-06T08:54:58.814Z,11.49
2023-04-06T08:57:27.737Z,11.62
2023-04-06T08:59:57.727Z,11.69
2023-04-06T09:02:26.938Z,11.58
2023-04-06T09:04:55.785Z,11.69
2023-04-06T09:07:25.087Z,11.72
2023-04-06T09:09:53.135Z,11.73
2023-04-06T09:12:28.978Z,11.89
2023-04-06T09:14:57.973Z,11.86
2023-04-06T09:17:31.383Z,11.92
2023-04-06T09:20:00.600Z,11.98
2023-04-06T09:22:40.434Z,11.97
2023-04-06T09:25:12.033Z,12.10
2023-04-06T09:27:40.231Z,12.41
2023-04-06T09:30:15.316Z,12.37
2023-04-06T09:32:53.236Z,12.35
2023-04-06T09:35:22.354Z,12.32
2023-04-06T09:37:52.905Z,12.66
2023-04-06T09:40:22.300Z,12.72
2023-04-06T09:42:54.937Z,12.83
2023-04-06T09:45:22.989Z,12.75
2023-04-06T09:47:52.861Z,12.80
2023-04-06T09:50:22.473Z,12.95
2023-04-06T09:52:52.469Z,13.16
2023-04-06T09:55:44.212Z,13.47
2023-04-06T09:58:19.759Z,13.55
2023-04-06T10:01:13.551Z,13.39
2023-04-06T10:03:54.226Z,13.28
2023-04-06T10:06:24.907Z,13.20
2023-04-06T10:08:56.538Z,13.07
2023-04-06T10:11:24.748Z,13.46
2023-04-06T10:13:52.826Z,13.46
2023-04-06T10:16:21.177Z,13.58
2023-04-06T10:18:55.952Z,13.93
2023-04-06T10:21:27.937Z,14.09
2023-04-06T10:24:00.993Z,14.34
2023-04-06T10:26:29.120Z,14.62
2023-04-06T10:29:04.977Z,14.39
2023-04-06T10:31:33.421Z,14.36
2023-04-06T10:34:03.210Z,14.61
2023-04-06T10:36:35.681Z,14.25
2023-04-06T10:39:06.017Z,14.32
2023-04-06T10:41:42.980Z,14.92
2023-04-06T10:44:22.494Z,15.39
